createdAt,value
2023-03-03T00:01:07.069Z,10.63
2023-03-03T00:03:34.190Z,10.43
2023-03-03T00:06:01.756Z,10.18
2023-03-03T00:08:28.298Z,8.77
2023-03-03T00:10:55.622Z,7.97
2023-03-03T00:13:24.765Z,8.50
2023-03-03T00:15:52.528Z,9.75
2023-03-03T00:18:30.492Z,7.75
2023-03-03T00:21:00.967Z,10.43
2023-03-03T00:23:31.813Z,9.77
2023-03-03T00:25:59.485Z,10.83
2023-03-03T00:28:28.232Z,10.70
2023-03-03T00:31:00.381Z,12.02
2023-03-03T00:33:34.631Z,7.38
2023-03-03T00:36:31.950Z,10.57
2023-03-03T00:39:35.625Z,10.47
2023-03-03T00:42:05.948Z,10.55
2023-03-03T00:44:43.739Z,12.02
2023-03-03T00:47:31.267Z,8.80
2023-03-03T00:50:07.145Z,10.65
2023-03-03T00:52:40.216Z,13.07
2023-03-03T00:55:08.334Z,12.00
2023-03-03T00:57:34.882Z,12.35
2023-03-03T01:00:01.357Z,13.20
2023-03-03T01:02:28.016Z,12.73
2023-03-03T01:04:57.157Z,13.03
2023-03-03T01:07:25.518Z,13.52
2023-03-03T01:09:52.085Z,16.23
2023-03-03T01:12:18.628Z,14.23
2023-03-03T01:14:45.489Z,14.60
2023-03-03T01:17:12.118Z,16.50
2023-03-03T01:19:38.604Z,8.77
2023-03-03T01:22:05.140Z,14.43
2023-03-03T01:24:31.901Z,16.30
2023-03-03T01:26:58.353Z,15.48
2023-03-03T01:29:24.921Z,14.67
2023-03-03T01:31:51.443Z,11.38
2023-03-03T01:34:17.934Z,12.65
2023-03-03T01:36:44.433Z,14.30
2023-03-03T01:39:12.009Z,17.50
2023-03-03T01:41:38.502Z,19.40
2023-03-03T01:44:05.752Z,12.57
2023-03-03T01:46:56.896Z,15.55
2023-03-03T01:50:12.670Z,11.05
2023-03-03T01:52:42.849Z,15.23
2023-03-03T01:55:34.402Z,15.53
2023-03-03T01:58:21.502Z,15.02
2023-03-03T02:00:53.370Z,14.63
2023-03-03T02:03:23.243Z,15.18
2023-03-03T02:05:53.168Z,20.92
2023-03-03T02:08:24.110Z,13.40
2023-03-03T02:10:51.715Z,13.77
2023-03-03T02:13:18.413Z,13.90
2023-03-03T02:15:45.002Z,12.65
2023-03-03T02:18:14.360Z,16.80
2023-03-03T02:20:43.912Z,18.40
2023-03-03T02:23:37.783Z,16.45
2023-03-03T02:26:10.425Z,11.00
2023-03-03T02:28:38.690Z,13.32
2023-03-03T02:31:12.369Z,14.68
2023-03-03T02:33:43.334Z,14.40
2023-03-03T02:36:20.051Z,13.65
2023-03-03T02:38:53.881Z,17.52
2023-03-03T02:41:23.287Z,14.10
2023-03-03T02:44:16.061Z,13.38
2023-03-03T02:46:45.525Z,12.30
2023-03-03T02:49:14.248Z,17.20
2023-03-03T02:51:41.263Z,16.67
2023-03-03T02:54:08.790Z,20.45
2023-03-03T02:56:35.830Z,13.35
2023-03-03T02:59:03.124Z,12.80
2023-03-03T03:01:32.056Z,14.93
2023-03-03T03:03:58.993Z,20.10
2023-03-03T03:06:25.620Z,12.20
2023-03-03T03:08:52.138Z,17.55
2023-03-03T03:11:18.644Z,16.13
2023-03-03T03:13:45.272Z,16.95
2023-03-03T03:16:11.783Z,20.35
2023-03-03T03:18:38.415Z,17.55
2023-03-03T03:21:13.213Z,19.33
2023-03-03T03:23:40.707Z,15.23
2023-03-03T03:26:07.822Z,17.45
2023-03-03T03:28:35.217Z,21.30
2023-03-03T03:31:03.113Z,21.65
2023-03-03T03:33:29.814Z,16.50
2023-03-03T03:35:57.157Z,13.30
2023-03-03T03:38:25.845Z,17.52
2023-03-03T03:40:52.362Z,20.65
2023-03-03T03:43:18.858Z,14.25
2023-03-03T03:45:45.816Z,17.52
2023-03-03T03:48:12.926Z,15.43
2023-03-03T03:50:39.949Z,13.15
2023-03-03T03:53:07.467Z,13.60
2023-03-03T03:55:34.219Z,8.60
2023-03-03T03:58:00.659Z,14.35
2023-03-03T04:00:27.252Z,8.93
2023-03-03T04:02:53.778Z,11.43
2023-03-03T04:05:21.139Z,14.70
2023-03-03T04:07:47.754Z,17.00
2023-03-03T04:10:14.301Z,14.32
2023-03-03T04:12:40.857Z,13.70
2023-03-03T04:15:13.501Z,16.85
2023-03-03T04:17:40.445Z,12.65
2023-03-03T04:20:08.314Z,15.10
2023-03-03T04:22:36.067Z,17.40
2023-03-03T04:25:05.441Z,10.00
2023-03-03T04:27:33.501Z,17.65
2023-03-03T04:30:01.549Z,14.32
2023-03-03T04:32:28.645Z,16.90
2023-03-03T04:35:05.642Z,12.23
2023-03-03T04:37:33.744Z,17.37
2023-03-03T04:40:00.524Z,13.73
2023-03-03T04:42:28.135Z,12.40
2023-03-03T04:44:55.121Z,14.35
2023-03-03T04:47:21.957Z,16.02
2023-03-03T04:49:48.573Z,13.87
2023-03-03T04:52:15.034Z,18.40
2023-03-03T04:54:41.659Z,13.85
2023-03-03T04:57:09.488Z,15.20
2023-03-03T04:59:36.358Z,15.75
2023-03-03T05:02:04.648Z,13.63
2023-03-03T05:04:31.805Z,12.07
2023-03-03T05:06:58.308Z,13.27
2023-03-03T05:09:24.836Z,11.18
2023-03-03T05:11:51.701Z,11.93
2023-03-03T05:14:18.607Z,9.40
2023-03-03T05:16:45.168Z,13.55
2023-03-03T05:19:11.684Z,16.17
2023-03-03T05:21:42.338Z,10.73
2023-03-03T05:24:10.328Z,9.80
2023-03-03T05:26:37.580Z,10.77
2023-03-03T05:29:04.927Z,6.32
2023-03-03T05:31:31.548Z,15.32
2023-03-03T05:33:58.080Z,14.00
2023-03-03T05:36:25.027Z,11.88
2023-03-03T05:38:51.683Z,12.97
2023-03-03T05:41:18.685Z,12.38
2023-03-03T05:43:45.341Z,14.18
2023-03-03T05:46:11.904Z,21.70
2023-03-03T05:48:38.516Z,22.02
2023-03-03T05:51:05.278Z,11.93
2023-03-03T05:53:31.877Z,13.20
2023-03-03T05:55:58.418Z,15.30
2023-03-03T05:58:25.181Z,14.93
2023-03-03T06:00:52.118Z,20.48
2023-03-03T06:03:18.696Z,15.90
2023-03-03T06:05:45.289Z,13.85
2023-03-03T06:08:11.875Z,13.88
2023-03-03T06:10:38.488Z,12.57
2023-03-03T06:13:05.207Z,15.77
2023-03-03T06:15:31.764Z,16.50
2023-03-03T06:17:58.307Z,15.65
2023-03-03T06:20:24.836Z,14.60
2023-03-03T06:22:51.381Z,20.05
2023-03-03T06:25:18.326Z,32.33
2023-03-03T06:27:44.854Z,25.83
2023-03-03T06:30:13.003Z,7.30
2023-03-03T06:32:40.128Z,8.75
2023-03-03T06:35:07.096Z,13.93
2023-03-03T06:37:34.134Z,27.80
2023-03-03T06:40:00.708Z,9.90
2023-03-03T06:42:27.415Z,8.13
2023-03-03T06:44:53.909Z,34.70
2023-03-03T06:47:20.387Z,7.05
2023-03-03T06:49:46.837Z,10.25
2023-03-03T06:52:19.006Z,14.70
2023-03-03T06:54:45.577Z,13.15
2023-03-03T06:57:33.323Z,18.65
2023-03-03T07:00:16.588Z,21.60
2023-03-03T07:02:43.088Z,12.05
2023-03-03T07:05:17.113Z,10.47
2023-03-03T07:07:44.470Z,7.60
2023-03-03T07:10:31.438Z,22.83
2023-03-03T07:13:07.014Z,10.48
2023-03-03T07:15:35.719Z,11.60
2023-03-03T07:18:03.271Z,9.17
2023-03-03T07:20:36.047Z,8.30
2023-03-03T07:23:21.663Z,12.00
2023-03-03T07:25:48.663Z,7.78
2023-03-03T07:28:25.587Z,9.38
2023-03-03T07:30:53.996Z,8.77
2023-03-03T07:33:35.200Z,9.50
2023-03-03T07:36:03.998Z,10.55
2023-03-03T07:38:46.207Z,7.13
2023-03-03T07:41:20.839Z,8.35
2023-03-03T07:43:54.975Z,5.33
2023-03-03T07:46:42.871Z,7.13
2023-03-03T07:49:21.935Z,6.18
2023-03-03T07:51:59.659Z,9.07
2023-03-03T07:54:32.328Z,5.55
2023-03-03T07:57:22.524Z,7.47
2023-03-03T08:00:16.386Z,4.15
2023-03-03T08:02:58.378Z,6.72
2023-03-03T08:05:44.606Z,7.35
2023-03-03T08:08:34.532Z,8.90
2023-03-03T08:11:02.023Z,6.03
2023-03-03T08:13:34.605Z,4.47
2023-03-03T08:16:25.918Z,5.45
2023-03-03T08:18:53.865Z,4.72
2023-03-03T08:21:21.615Z,6.10
2023-03-03T08:23:51.806Z,6.83
2023-03-03T08:26:19.432Z,5.97
2023-03-03T08:28:46.480Z,5.93
2023-03-03T08:31:22.631Z,8.02
2023-03-03T08:33:57.577Z,7.57
2023-03-03T08:36:24.407Z,7.33
2023-03-03T08:38:51.045Z,8.40
2023-03-03T08:41:17.554Z,8.25
2023-03-03T08:43:45.381Z,6.38
2023-03-03T08:46:12.080Z,8.23
2023-03-03T08:48:38.621Z,7.00
2023-03-03T08:51:05.948Z,7.68
2023-03-03T08:53:34.954Z,7.72
2023-03-03T08:56:01.612Z,6.05
2023-03-03T08:58:35.225Z,7.57
2023-03-03T09:01:02.506Z,7.27
2023-03-03T09:03:30.043Z,7.22
2023-03-03T09:05:56.859Z,9.02
2023-03-03T09:08:23.449Z,6.55
2023-03-03T09:10:49.926Z,6.90
2023-03-03T09:13:19.387Z,6.57
2023-03-03T09:15:47.174Z,3.95
2023-03-03T09:18:22.733Z,5.68
2023-03-03T09:20:51.650Z,4.18
2023-03-03T09:23:31.419Z,7.03
2023-03-03T09:26:11.231Z,5.30
2023-03-03T09:28:38.276Z,4.80
2023-03-03T09:31:25.479Z,5.50
2023-03-03T09:33:55.076Z,4.65
2023-03-03T09:36:27.985Z,3.80
2023-03-03T09:38:56.069Z,5.10
2023-03-03T09:41:49.411Z,4.55
2023-03-03T09:44:17.362Z,5.70
2023-03-03T09:47:13.376Z,5.40
2023-03-03T09:50:08.957Z,5.93
2023-03-03T09:52:41.412Z,4.13
2023-03-03T09:55:25.276Z,6.38
2023-03-03T09:58:08.187Z,5.40
2023-03-03T10:00:58.148Z,3.97
2023-03-03T10:04:02.529Z,3.63
2023-03-03T10:06:37.243Z,3.13
2023-03-03T10:09:33.223Z,4.25
2023-03-03T10:12:22.516Z,3.85
2023-03-03T10:15:12.848Z,4.63
2023-03-03T10:17:44.860Z,3.30
2023-03-03T10:20:15.801Z,2.77
2023-03-03T10:22:45.474Z,4.90
2023-03-03T10:25:37.897Z,4.30
2023-03-03T10:28:30.430Z,7.97
2023-03-03T10:31:10.687Z,4.88
2023-03-03T10:33:39.210Z,3.87
2023-03-03T10:36:32.144Z,3.80
2023-03-03T10:39:37.233Z,3.58
2023-03-03T10:42:41.044Z,4.75
2023-03-03T10:45:27.916Z,4.22
2023-03-03T10:52:26.339Z,3.28
2023-03-03T10:55:30.534Z,3.20
2023-03-03T10:58:23.384Z,4.18
2023-03-03T11:01:17.429Z,3.17
2023-03-03T11:03:59.276Z,2.57
2023-03-03T11:06:38.709Z,3.05
2023-03-03T11:09:38.010Z,3.75
2023-03-03T11:12:25.987Z,2.88
2023-03-03T11:15:20.780Z,2.22
2023-03-03T11:17:56.584Z,4.03
2023-03-03T11:20:34.602Z,4.13
2023-03-03T11:23:33.503Z,2.97
2023-03-03T11:26:28.582Z,1.77
2023-03-03T11:29:19.449Z,2.15
2023-03-03T11:32:16.489Z,2.60
2023-03-03T11:35:04.484Z,4.07
2023-03-03T11:38:03.277Z,3.20
2023-03-03T11:40:47.033Z,3.65
2023-03-03T11:43:35.610Z,1.83
2023-03-03T11:46:09.033Z,1.70
2023-03-03T11:49:00.618Z,2.08
2023-03-03T11:51:50.779Z,1.98
2023-03-03T11:54:50.831Z,1.17
2023-03-03T11:57:39.620Z,4.38
2023-03-03T12:00:18.902Z,1.73
2023-03-03T12:03:00.233Z,1.25
2023-03-03T12:05:31.622Z,2.88
2023-03-03T12:08:14.310Z,1.77
2023-03-03T12:11:02.074Z,0.55
2023-03-03T12:13:41.013Z,1.17
2023-03-03T12:16:31.214Z,2.83
2023-03-03T12:19:21.288Z,0.82
2023-03-03T12:22:24.208Z,1.67
2023-03-03T12:25:15.022Z,2.08
2023-03-03T12:27:54.727Z,4.23
2023-03-03T12:30:33.212Z,2.05
2023-03-03T12:33:08.405Z,1.83
2023-03-03T12:35:59.546Z,1.85
2023-03-03T12:38:34.671Z,1.17
2023-03-03T12:41:15.220Z,2.60
2023-03-03T12:44:07.960Z,1.10
2023-03-03T12:46:44.700Z,1.20
2023-03-03T12:49:11.704Z,1.80
2023-03-03T12:51:48.339Z,0.90
2023-03-03T12:54:43.771Z,2.63
2023-03-03T12:57:13.509Z,0.93
2023-03-03T13:00:01.852Z,0.90
2023-03-03T13:02:43.813Z,3.03
2023-03-03T13:05:30.277Z,1.10
2023-03-03T13:08:11.422Z,1.33
2023-03-03T13:10:53.138Z,2.10
2023-03-03T13:13:49.062Z,2.13
2023-03-03T13:16:38.972Z,3.55
2023-03-03T13:19:11.722Z,4.20
2023-03-03T13:21:46.185Z,2.17
2023-03-03T13:25:04.392Z,1.38
2023-03-03T13:27:44.316Z,1.27
2023-03-03T13:30:25.348Z,2.90
2023-03-03T13:33:25.746Z,0.90
2023-03-03T13:36:00.298Z,1.20
2023-03-03T13:38:43.124Z,2.85
2023-03-03T13:41:25.211Z,1.65
2023-03-03T13:44:02.083Z,1.33
2023-03-03T13:46:43.612Z,1.45
2023-03-03T13:49:13.256Z,1.23
2023-03-03T13:51:46.689Z,3.60
2023-03-03T13:54:22.429Z,1.00
2023-03-03T13:57:03.897Z,1.27
2023-03-03T14:00:00.030Z,0.60
2023-03-03T14:02:58.985Z,1.40
2023-03-03T14:05:34.380Z,0.82
2023-03-03T14:08:09.345Z,4.07
2023-03-03T14:11:03.014Z,1.40
2023-03-03T14:13:40.094Z,3.33
2023-03-03T14:16:19.112Z,4.20
2023-03-03T14:18:57.252Z,2.05
2023-03-03T14:21:45.478Z,1.52
2023-03-03T14:24:18.432Z,1.05
2023-03-03T14:26:50.157Z,0.40
2023-03-03T14:29:28.133Z,0.70
2023-03-03T14:32:03.203Z,1.63
2023-03-03T14:34:41.531Z,2.33
2023-03-03T14:37:43.006Z,0.90
2023-03-03T14:40:09.632Z,0.57
2023-03-03T14:42:45.016Z,0.97
2023-03-03T14:45:40.513Z,0.95
2023-03-03T14:48:19.128Z,0.43
2023-03-03T14:50:50.436Z,1.30
2023-03-03T14:53:20.177Z,1.13
2023-03-03T14:55:49.693Z,1.80
2023-03-03T14:58:41.181Z,0.77
2023-03-03T15:01:31.479Z,1.00
2023-03-03T15:04:02.844Z,1.42
2023-03-03T15:06:43.082Z,3.13
2023-03-03T15:09:29.848Z,1.10
2023-03-03T15:11:59.564Z,0.88
2023-03-03T15:14:35.203Z,0.77
2023-03-03T15:17:39.226Z,1.52
2023-03-03T15:20:20.938Z,1.08
2023-03-03T15:22:50.605Z,0.73
2023-03-03T15:25:41.850Z,0.65
2023-03-03T15:28:18.409Z,0.73
2023-03-03T15:31:03.433Z,0.52
2023-03-03T15:33:43.571Z,0.73
2023-03-03T15:36:33.366Z,2.87
2023-03-03T15:39:28.943Z,0.35
2023-03-03T15:42:10.034Z,0.95
2023-03-03T15:44:42.733Z,0.00
2023-03-03T15:47:34.237Z,0.60
2023-03-03T15:50:35.967Z,1.63
2023-03-03T15:53:21.285Z,1.45
2023-03-03T15:56:18.988Z,2.30
2023-03-03T15:59:10.473Z,0.25
2023-03-03T16:01:42.456Z,0.93
2023-03-03T16:04:14.548Z,0.27
2023-03-03T16:06:59.402Z,2.63
2023-03-03T16:10:12.065Z,2.65
2023-03-03T16:13:00.280Z,0.15
2023-03-03T16:16:02.559Z,2.55
2023-03-03T16:18:53.564Z,2.10
2023-03-03T16:21:23.776Z,4.00
2023-03-03T16:23:52.501Z,1.17
2023-03-03T16:26:56.801Z,1.08
2023-03-03T16:29:44.974Z,1.30
2023-03-03T16:32:27.825Z,1.40
2023-03-03T16:35:02.612Z,1.98
2023-03-03T16:37:36.199Z,0.93
2023-03-03T16:40:02.574Z,1.17
2023-03-03T16:42:31.718Z,1.75
2023-03-03T16:45:24.710Z,4.23
2023-03-03T16:47:57.261Z,3.17
2023-03-03T16:50:27.770Z,2.35
2023-03-03T16:53:15.476Z,2.03
2023-03-03T16:56:00.062Z,3.13
2023-03-03T16:58:29.278Z,1.57
2023-03-03T17:01:21.631Z,2.17
2023-03-03T17:03:59.379Z,1.58
2023-03-03T17:06:41.606Z,4.57
2023-03-03T17:09:41.726Z,3.53
2023-03-03T17:12:17.049Z,1.37
2023-03-03T17:15:05.215Z,3.65
2023-03-03T17:17:38.291Z,1.08
2023-03-03T17:20:38.236Z,1.58
2023-03-03T17:23:22.654Z,3.78
2023-03-03T17:26:11.363Z,2.60
2023-03-03T17:28:50.078Z,3.80
2023-03-03T17:31:46.660Z,2.40
2023-03-03T17:34:36.078Z,1.27
2023-03-03T17:37:21.860Z,1.05
2023-03-03T17:39:54.531Z,0.97
2023-03-03T17:42:36.551Z,2.05
2023-03-03T17:45:13.680Z,4.80
2023-03-03T17:48:01.849Z,3.42
2023-03-03T17:50:37.524Z,2.45
2023-03-03T17:53:33.226Z,3.10
2023-03-03T17:56:11.668Z,2.92
2023-03-03T17:58:59.876Z,3.30
2023-03-03T18:01:48.748Z,5.60
2023-03-03T18:04:51.982Z,4.97
2023-03-03T18:07:25.006Z,1.97
2023-03-03T18:10:13.375Z,5.25
2023-03-03T18:12:53.553Z,1.63
2023-03-03T18:16:10.686Z,6.32
2023-03-03T18:18:40.676Z,2.38
2023-03-03T18:21:23.524Z,3.10
2023-03-03T18:23:50.463Z,3.28
2023-03-03T18:26:42.002Z,6.57
2023-03-03T18:29:17.592Z,9.48
2023-03-03T18:31:57.210Z,7.35
2023-03-03T18:34:40.853Z,1.40
2023-03-03T18:37:37.152Z,4.57
2023-03-03T18:40:03.668Z,6.72
2023-03-03T18:42:37.767Z,3.25
2023-03-03T18:45:19.532Z,4.55
2023-03-03T18:48:01.130Z,6.47
2023-03-03T18:50:42.787Z,7.25
2023-03-03T18:53:21.485Z,4.00
2023-03-03T18:55:53.376Z,6.50
2023-03-03T18:58:20.025Z,6.10
2023-03-03T19:00:53.014Z,7.37
2023-03-03T19:03:49.099Z,7.10
2023-03-03T19:06:38.535Z,6.07
2023-03-03T19:09:06.644Z,6.75
2023-03-03T19:11:36.565Z,7.82
2023-03-03T19:14:18.280Z,4.63
2023-03-03T19:16:45.483Z,3.17
2023-03-03T19:19:14.682Z,8.43
2023-03-03T19:21:42.873Z,5.97
2023-03-03T19:24:27.450Z,5.75
2023-03-03T19:27:24.742Z,4.43
2023-03-03T19:30:22.536Z,3.42
2023-03-03T19:33:07.753Z,9.27
2023-03-03T19:36:32.378Z,9.13
2023-03-03T19:39:14.507Z,11.18
2023-03-03T19:41:59.658Z,6.67
2023-03-03T19:44:49.125Z,7.72
2023-03-03T19:47:39.084Z,8.73
2023-03-03T19:50:20.982Z,7.65
2023-03-03T19:53:04.796Z,6.78
2023-03-03T19:55:48.626Z,10.10
2023-03-03T19:58:22.283Z,6.00
2023-03-03T20:01:08.340Z,6.43
2023-03-03T20:03:53.527Z,10.30
2023-03-03T20:06:48.423Z,7.68
2023-03-03T20:09:41.634Z,10.20
2023-03-03T20:12:20.154Z,10.45
2023-03-03T20:15:15.229Z,11.48
2023-03-03T20:18:29.691Z,6.63
2023-03-03T20:21:15.233Z,7.75
2023-03-03T20:24:09.244Z,14.43
2023-03-03T20:26:52.579Z,5.53
2023-03-03T20:30:08.640Z,6.43
2023-03-03T20:32:39.659Z,7.18
2023-03-03T20:35:06.459Z,2.67
2023-03-03T20:37:44.677Z,9.67
2023-03-03T20:40:18.615Z,5.63
2023-03-03T20:43:06.437Z,10.77
2023-03-03T20:45:51.830Z,4.82
2023-03-03T20:48:27.582Z,9.73
2023-03-03T20:51:15.517Z,10.40
2023-03-03T20:54:02.173Z,4.57
2023-03-03T20:56:46.813Z,7.93
2023-03-03T20:59:16.259Z,8.48
2023-03-03T21:01:46.265Z,7.05
2023-03-03T21:04:25.935Z,3.07
2023-03-03T21:06:53.340Z,5.90
2023-03-03T21:09:24.520Z,6.30
2023-03-03T21:11:51.051Z,9.18
2023-03-03T21:14:25.080Z,8.15
2023-03-03T21:16:56.330Z,6.17
2023-03-03T21:19:32.454Z,8.38
2023-03-03T21:22:02.341Z,12.75
2023-03-03T21:24:50.966Z,8.52
2023-03-03T21:27:29.524Z,5.03
2023-03-03T21:30:16.766Z,8.90
2023-03-03T21:32:45.160Z,7.15
2023-03-03T21:35:23.504Z,7.75
2023-03-03T21:37:57.533Z,12.50
2023-03-03T21:40:29.384Z,4.22
2023-03-03T21:42:58.980Z,8.30
2023-03-03T21:45:26.803Z,7.82
2023-03-03T21:47:55.094Z,5.75
2023-03-03T21:50:21.693Z,6.78
2023-03-03T21:52:48.792Z,4.35
2023-03-03T21:55:15.580Z,5.83
2023-03-03T21:57:42.101Z,6.85
2023-03-03T22:00:09.412Z,4.85
2023-03-03T22:02:36.618Z,6.07
2023-03-03T22:05:04.100Z,5.45
2023-03-03T22:07:30.669Z,15.33
2023-03-03T22:09:57.211Z,10.73
2023-03-03T22:12:23.755Z,8.40
2023-03-03T22:14:50.445Z,7.55
2023-03-03T22:17:17.071Z,11.60
2023-03-03T22:19:43.530Z,7.50
2023-03-03T22:22:09.997Z,8.88
2023-03-03T22:24:36.532Z,7.68
2023-03-03T22:27:03.775Z,9.02
2023-03-03T22:29:30.358Z,6.32
2023-03-03T22:31:56.962Z,7.03
2023-03-03T22:34:23.600Z,7.38
2023-03-03T22:36:50.124Z,9.95
2023-03-03T22:39:16.586Z,3.72
2023-03-03T22:41:43.217Z,4.85
2023-03-03T22:44:09.779Z,2.97
2023-03-03T22:46:36.378Z,6.75
2023-03-03T22:49:03.046Z,8.10
2023-03-03T22:51:29.634Z,7.65
2023-03-03T22:53:56.118Z,6.30
2023-03-03T22:56:22.654Z,12.07
2023-03-03T22:58:49.691Z,7.50
2023-03-03T23:01:16.197Z,12.05
2023-03-03T23:03:42.632Z,5.82
2023-03-03T23:06:09.136Z,13.32
2023-03-03T23:08:35.634Z,14.17
2023-03-03T23:11:02.883Z,5.13
2023-03-03T23:13:29.512Z,4.68
2023-03-03T23:15:59.988Z,7.28
2023-03-03T23:18:28.284Z,4.90
2023-03-03T23:20:55.642Z,5.47
2023-03-03T23:23:23.458Z,4.50
2023-03-03T23:25:50.097Z,13.98
2023-03-03T23:28:16.725Z,3.50
2023-03-03T23:30:43.230Z,8.10
2023-03-03T23:33:09.831Z,5.17
2023-03-03T23:35:36.682Z,6.53
2023-03-03T23:38:03.280Z,4.75
2023-03-03T23:40:29.884Z,6.18
2023-03-03T23:42:56.398Z,2.25
2023-03-03T23:45:23.015Z,8.53
2023-03-03T23:47:49.475Z,4.82
2023-03-03T23:50:16.078Z,8.23
2023-03-03T23:52:42.973Z,5.68
2023-03-03T23:55:09.880Z,5.68
2023-03-03T23:57:36.531Z,5.37
